Main page
METAR-TAF:

METAR-TAF

Airports :

Elsenborn-Butgenbach Air Base

Bütgenbach, Belgium

latitude: 50-28N, longitude: 006-11E, elevation: 564 m

Current weather observation

The report was made 25 minutes ago, at 13:55 UTC
Wind 10 kt from the South
Temperature 19°C
Humidity 68%
Pressure 1010 hPa
Visibility 10 km or more

METAR: EBLB 141355Z AUTO 19010KT 9999 NCD 19/13 Q1010 BLU

Time: 16:20 (14:20 UTC)


TAF: missing

Weather observations and forecasts of more than 4000 airports (METAR and TAF reports).

The available stations are represented by yellow and red dots on the map.

Hover mouse over dot to see the name of the station.

Then click to see weather observations and forecasts.

To change the map : click on the green buttons with a black cross to zoom in, on the green button with a dash to zoom out, or on the green arrows for adjacent maps.


METAR-TAF: